sensor_id;sensor_type;location;lat;lon;timestamp;temperature;humidity
26743;DHT22;14341;51.256;22.478;2022-10-16T00:00:43;9.80;99.90
26743;DHT22;14341;51.256;22.478;2022-10-16T00:03:48;9.80;99.90
26743;DHT22;14341;51.256;22.478;2022-10-16T00:06:53;9.70;99.90
26743;DHT22;14341;51.256;22.478;2022-10-16T00:09:56;9.60;99.90
26743;DHT22;14341;51.256;22.478;2022-10-16T00:13:00;9.50;99.90
26743;DHT22;14341;51.256;22.478;2022-10-16T00:16:04;9.50;99.90
26743;DHT22;14341;51.256;22.478;2022-10-16T00:19:09;9.40;99.90
26743;DHT22;14341;51.256;22.478;2022-10-16T00:22:15;9.60;99.90
26743;DHT22;14341;51.256;22.478;2022-10-16T00:25:18;9.60;99.90
26743;DHT22;14341;51.256;22.478;2022-10-16T00:28:21;9.50;99.90
26743;DHT22;14341;51.256;22.478;2022-10-16T00:31:25;9.60;99.90
26743;DHT22;14341;51.256;22.478;2022-10-16T00:34:28;9.60;99.90
26743;DHT22;14341;51.256;22.478;2022-10-16T00:37:33;10.80;99.90
26743;DHT22;14341;51.256;22.478;2022-10-16T00:40:37;9.70;99.90
26743;DHT22;14341;51.256;22.478;2022-10-16T00:43:42;9.70;99.90
26743;DHT22;14341;51.256;22.478;2022-10-16T00:46:45;9.70;99.90
26743;DHT22;14341;51.256;22.478;2022-10-16T00:49:50;9.70;99.90
26743;DHT22;14341;51.256;22.478;2022-10-16T00:52:56;9.80;99.90
26743;DHT22;14341;51.256;22.478;2022-10-16T00:56:01;9.70;99.90
26743;DHT22;14341;51.256;22.478;2022-10-16T00:59:10;9.60;99.90
26743;DHT22;14341;51.256;22.478;2022-10-16T01:02:17;9.50;99.90
26743;DHT22;14341;51.256;22.478;2022-10-16T01:05:49;9.50;99.90
26743;DHT22;14341;51.256;22.478;2022-10-16T01:09:41;9.30;99.90
26743;DHT22;14341;51.256;22.478;2022-10-16T01:13:07;9.30;99.90
26743;DHT22;14341;51.256;22.478;2022-10-16T01:16:33;9.20;99.90
26743;DHT22;14341;51.256;22.478;2022-10-16T01:19:58;9.20;99.90
26743;DHT22;14341;51.256;22.478;2022-10-16T01:23:28;9.10;99.90
26743;DHT22;14341;51.256;22.478;2022-10-16T01:34:32;8.70;99.90
26743;DHT22;14341;51.256;22.478;2022-10-16T01:37:49;9.00;99.90
26743;DHT22;14341;51.256;22.478;2022-10-16T01:41:08;9.00;99.90
26743;DHT22;14341;51.256;22.478;2022-10-16T01:44:18;8.90;99.90
26743;DHT22;14341;51.256;22.478;2022-10-16T01:47:26;9.00;99.90
26743;DHT22;14341;51.256;22.478;2022-10-16T01:50:35;9.10;99.90
26743;DHT22;14341;51.256;22.478;2022-10-16T01:54:00;9.00;99.90
26743;DHT22;14341;51.256;22.478;2022-10-16T01:57:20;9.00;99.90
26743;DHT22;14341;51.256;22.478;2022-10-16T02:00:34;9.00;99.90
26743;DHT22;14341;51.256;22.478;2022-10-16T02:03:43;9.00;99.90
26743;DHT22;14341;51.256;22.478;2022-10-16T02:07:35;8.80;99.90
26743;DHT22;14341;51.256;22.478;2022-10-16T02:10:55;8.70;99.90
26743;DHT22;14341;51.256;22.478;2022-10-16T02:14:06;8.80;99.90
26743;DHT22;14341;51.256;22.478;2022-10-16T02:17:24;8.80;99.90
26743;DHT22;14341;51.256;22.478;2022-10-16T02:20:43;8.10;99.90
26743;DHT22;14341;51.256;22.478;2022-10-16T02:24:06;8.80;99.90
26743;DHT22;14341;51.256;22.478;2022-10-16T02:27:42;8.60;99.90
26743;DHT22;14341;51.256;22.478;2022-10-16T02:31:22;8.70;99.90
26743;DHT22;14341;51.256;22.478;2022-10-16T02:34:37;8.50;99.90
26743;DHT22;14341;51.256;22.478;2022-10-16T02:37:52;8.50;99.90
26743;DHT22;14341;51.256;22.478;2022-10-16T02:41:10;8.60;99.90
26743;DHT22;14341;51.256;22.478;2022-10-16T02:44:14;8.60;99.90
26743;DHT22;14341;51.256;22.478;2022-10-16T02:47:35;8.50;99.90
26743;DHT22;14341;51.256;22.478;2022-10-16T02:50:59;8.60;99.90
26743;DHT22;14341;51.256;22.478;2022-10-16T02:54:16;8.60;99.90
26743;DHT22;14341;51.256;22.478;2022-10-16T02:57:46;7.40;99.90
26743;DHT22;14341;51.256;22.478;2022-10-16T03:01:04;8.60;99.90
26743;DHT22;14341;51.256;22.478;2022-10-16T03:04:08;8.70;99.90
26743;DHT22;14341;51.256;22.478;2022-10-16T03:07:11;8.70;99.90
26743;DHT22;14341;51.256;22.478;2022-10-16T03:10:15;8.60;99.90
26743;DHT22;14341;51.256;22.478;2022-10-16T03:13:20;8.60;99.90
26743;DHT22;14341;51.256;22.478;2022-10-16T03:16:23;8.60;99.90
26743;DHT22;14341;51.256;22.478;2022-10-16T03:19:27;8.70;99.90
26743;DHT22;14341;51.256;22.478;2022-10-16T03:22:30;8.70;99.90
26743;DHT22;14341;51.256;22.478;2022-10-16T03:25:33;8.60;99.90
26743;DHT22;14341;51.256;22.478;2022-10-16T03:28:38;8.70;99.90
26743;DHT22;14341;51.256;22.478;2022-10-16T03:31:42;8.70;99.90
26743;DHT22;14341;51.256;22.478;2022-10-16T03:34:45;8.70;99.90
26743;DHT22;14341;51.256;22.478;2022-10-16T03:37:48;8.70;99.90
26743;DHT22;14341;51.256;22.478;2022-10-16T03:40:52;8.70;99.90
26743;DHT22;14341;51.256;22.478;2022-10-16T03:43:56;8.70;99.90
26743;DHT22;14341;51.256;22.478;2022-10-16T03:47:00;8.70;99.90
26743;DHT22;14341;51.256;22.478;2022-10-16T03:50:04;8.80;99.90
26743;DHT22;14341;51.256;22.478;2022-10-16T03:53:08;8.80;99.90
26743;DHT22;14341;51.256;22.478;2022-10-16T03:56:11;8.90;99.90
26743;DHT22;14341;51.256;22.478;2022-10-16T03:59:16;8.90;99.90
26743;DHT22;14341;51.256;22.478;2022-10-16T04:02:19;9.00;99.90
26743;DHT22;14341;51.256;22.478;2022-10-16T04:05:23;9.10;99.90
26743;DHT22;14341;51.256;22.478;2022-10-16T04:08:29;9.20;99.90
26743;DHT22;14341;51.256;22.478;2022-10-16T04:11:32;9.30;99.90
26743;DHT22;14341;51.256;22.478;2022-10-16T04:14:37;9.30;99.90
26743;DHT22;14341;51.256;22.478;2022-10-16T04:17:40;9.30;99.90
26743;DHT22;14341;51.256;22.478;2022-10-16T04:20:43;9.40;99.90
26743;DHT22;14341;51.256;22.478;2022-10-16T04:23:46;9.40;99.90
26743;DHT22;14341;51.256;22.478;2022-10-16T04:26:49;9.50;99.90
26743;DHT22;14341;51.256;22.478;2022-10-16T04:29:54;9.60;99.90
26743;DHT22;14341;51.256;22.478;2022-10-16T04:32:57;9.60;99.90
26743;DHT22;14341;51.256;22.478;2022-10-16T04:36:03;9.60;99.90
26743;DHT22;14341;51.256;22.478;2022-10-16T04:39:06;9.70;99.90
26743;DHT22;14341;51.256;22.478;2022-10-16T04:42:09;9.70;99.90
26743;DHT22;14341;51.256;22.478;2022-10-16T04:45:14;9.80;99.90
26743;DHT22;14341;51.256;22.478;2022-10-16T04:48:18;9.80;99.90
26743;DHT22;14341;51.256;22.478;2022-10-16T04:51:22;9.90;99.90
26743;DHT22;14341;51.256;22.478;2022-10-16T04:54:25;9.90;99.90
26743;DHT22;14341;51.256;22.478;2022-10-16T04:57:29;10.00;99.90
26743;DHT22;14341;51.256;22.478;2022-10-16T05:00:34;10.10;99.90
26743;DHT22;14341;51.256;22.478;2022-10-16T05:03:38;10.10;99.90
26743;DHT22;14341;51.256;22.478;2022-10-16T05:06:41;10.20;99.90
26743;DHT22;14341;51.256;22.478;2022-10-16T05:09:45;10.30;99.90
26743;DHT22;14341;51.256;22.478;2022-10-16T05:12:48;10.40;99.90
26743;DHT22;14341;51.256;22.478;2022-10-16T05:15:53;10.50;99.90
26743;DHT22;14341;51.256;22.478;2022-10-16T05:18:56;10.60;99.90
26743;DHT22;14341;51.256;22.478;2022-10-16T05:22:20;10.60;99.90
26743;DHT22;14341;51.256;22.478;2022-10-16T05:25:23;10.70;99.90
26743;DHT22;14341;51.256;22.478;2022-10-16T05:28:27;10.70;99.90
26743;DHT22;14341;51.256;22.478;2022-10-16T05:31:34;10.70;99.90
26743;DHT22;14341;51.256;22.478;2022-10-16T05:34:37;10.70;99.90
26743;DHT22;14341;51.256;22.478;2022-10-16T05:37:40;10.80;99.90
26743;DHT22;14341;51.256;22.478;2022-10-16T05:40:50;10.80;99.90
26743;DHT22;14341;51.256;22.478;2022-10-16T05:43:54;10.80;99.90
26743;DHT22;14341;51.256;22.478;2022-10-16T05:46:59;10.80;99.90
26743;DHT22;14341;51.256;22.478;2022-10-16T05:50:03;10.90;99.90
26743;DHT22;14341;51.256;22.478;2022-10-16T05:53:07;10.90;99.90
26743;DHT22;14341;51.256;22.478;2022-10-16T05:56:11;10.90;99.90
26743;DHT22;14341;51.256;22.478;2022-10-16T05:59:14;10.90;99.90
26743;DHT22;14341;51.256;22.478;2022-10-16T06:02:19;10.90;99.90
26743;DHT22;14341;51.256;22.478;2022-10-16T06:05:23;11.00;99.90
26743;DHT22;14341;51.256;22.478;2022-10-16T06:08:26;11.00;99.90
26743;DHT22;14341;51.256;22.478;2022-10-16T06:11:31;11.00;99.90
26743;DHT22;14341;51.256;22.478;2022-10-16T06:14:35;11.00;99.90
26743;DHT22;14341;51.256;22.478;2022-10-16T06:17:40;11.00;99.90
26743;DHT22;14341;51.256;22.478;2022-10-16T06:20:44;11.00;99.90
26743;DHT22;14341;51.256;22.478;2022-10-16T06:23:47;11.10;99.90
26743;DHT22;14341;51.256;22.478;2022-10-16T06:26:51;11.10;99.90
26743;DHT22;14341;51.256;22.478;2022-10-16T06:29:54;11.10;99.90
26743;DHT22;14341;51.256;22.478;2022-10-16T06:32:59;11.20;99.90
26743;DHT22;14341;51.256;22.478;2022-10-16T06:36:03;11.30;99.90
26743;DHT22;14341;51.256;22.478;2022-10-16T06:39:07;11.40;99.90
26743;DHT22;14341;51.256;22.478;2022-10-16T06:42:10;11.50;99.90
26743;DHT22;14341;51.256;22.478;2022-10-16T06:45:14;11.50;99.90
26743;DHT22;14341;51.256;22.478;2022-10-16T06:48:19;11.60;99.90
26743;DHT22;14341;51.256;22.478;2022-10-16T06:51:23;11.70;99.90
26743;DHT22;14341;51.256;22.478;2022-10-16T06:54:27;11.80;99.90
26743;DHT22;14341;51.256;22.478;2022-10-16T06:57:31;11.80;99.90
26743;DHT22;14341;51.256;22.478;2022-10-16T07:00:34;11.90;99.90
26743;DHT22;14341;51.256;22.478;2022-10-16T07:03:39;12.00;99.90
26743;DHT22;14341;51.256;22.478;2022-10-16T07:06:43;12.10;99.90
26743;DHT22;14341;51.256;22.478;2022-10-16T07:09:46;12.20;99.90
26743;DHT22;14341;51.256;22.478;2022-10-16T07:12:49;12.30;99.90
26743;DHT22;14341;51.256;22.478;2022-10-16T07:15:53;12.50;99.90
26743;DHT22;14341;51.256;22.478;2022-10-16T07:18:59;12.70;99.90
26743;DHT22;14341;51.256;22.478;2022-10-16T07:22:03;12.70;99.90
26743;DHT22;14341;51.256;22.478;2022-10-16T07:25:07;12.70;99.90
26743;DHT22;14341;51.256;22.478;2022-10-16T07:28:11;12.80;99.90
26743;DHT22;14341;51.256;22.478;2022-10-16T07:31:16;12.90;99.90
26743;DHT22;14341;51.256;22.478;2022-10-16T07:34:21;13.00;99.90
26743;DHT22;14341;51.256;22.478;2022-10-16T07:37:25;13.10;99.90
26743;DHT22;14341;51.256;22.478;2022-10-16T07:40:30;13.20;99.90
26743;DHT22;14341;51.256;22.478;2022-10-16T07:43:34;13.20;99.90
26743;DHT22;14341;51.256;22.478;2022-10-16T07:46:37;13.30;99.90
26743;DHT22;14341;51.256;22.478;2022-10-16T07:49:42;13.30;99.90
26743;DHT22;14341;51.256;22.478;2022-10-16T07:52:46;13.30;99.90
26743;DHT22;14341;51.256;22.478;2022-10-16T07:55:50;13.30;99.90
26743;DHT22;14341;51.256;22.478;2022-10-16T07:58:54;13.40;99.90
26743;DHT22;14341;51.256;22.478;2022-10-16T08:01:58;13.50;99.90
26743;DHT22;14341;51.256;22.478;2022-10-16T08:05:03;13.80;99.90
26743;DHT22;14341;51.256;22.478;2022-10-16T08:08:11;13.90;99.90
26743;DHT22;14341;51.256;22.478;2022-10-16T08:11:16;14.00;99.90
26743;DHT22;14341;51.256;22.478;2022-10-16T08:14:19;14.10;99.90
26743;DHT22;14341;51.256;22.478;2022-10-16T08:17:23;14.20;99.90
26743;DHT22;14341;51.256;22.478;2022-10-16T08:20:28;14.20;99.90
26743;DHT22;14341;51.256;22.478;2022-10-16T08:23:32;14.40;99.90
26743;DHT22;14341;51.256;22.478;2022-10-16T08:26:36;14.50;99.90
26743;DHT22;14341;51.256;22.478;2022-10-16T08:29:39;14.60;99.90
26743;DHT22;14341;51.256;22.478;2022-10-16T08:32:43;14.60;99.90
26743;DHT22;14341;51.256;22.478;2022-10-16T08:35:52;14.70;99.90
26743;DHT22;14341;51.256;22.478;2022-10-16T08:38:56;14.80;99.90
26743;DHT22;14341;51.256;22.478;2022-10-16T08:42:11;14.90;99.90
26743;DHT22;14341;51.256;22.478;2022-10-16T08:45:25;15.20;99.90
26743;DHT22;14341;51.256;22.478;2022-10-16T08:48:40;15.20;99.90
26743;DHT22;14341;51.256;22.478;2022-10-16T08:51:47;15.40;99.90
26743;DHT22;14341;51.256;22.478;2022-10-16T08:54:54;15.50;99.90
26743;DHT22;14341;51.256;22.478;2022-10-16T08:57:59;15.70;99.90
26743;DHT22;14341;51.256;22.478;2022-10-16T09:01:04;15.90;99.90
26743;DHT22;14341;51.256;22.478;2022-10-16T09:04:47;16.20;98.10
26743;DHT22;14341;51.256;22.478;2022-10-16T09:08:05;16.50;93.40
26743;DHT22;14341;51.256;22.478;2022-10-16T09:11:17;16.50;89.10
26743;DHT22;14341;51.256;22.478;2022-10-16T09:14:40;16.60;82.60
26743;DHT22;14341;51.256;22.478;2022-10-16T09:17:55;16.70;87.00
26743;DHT22;14341;51.256;22.478;2022-10-16T09:21:08;16.80;90.40
26743;DHT22;14341;51.256;22.478;2022-10-16T09:24:16;16.90;88.00
26743;DHT22;14341;51.256;22.478;2022-10-16T09:27:21;16.90;69.60
26743;DHT22;14341;51.256;22.478;2022-10-16T09:30:28;17.00;79.80
26743;DHT22;14341;51.256;22.478;2022-10-16T09:33:35;16.90;79.80
26743;DHT22;14341;51.256;22.478;2022-10-16T09:36:41;17.10;64.20
26743;DHT22;14341;51.256;22.478;2022-10-16T09:39:50;16.70;60.60
26743;DHT22;14341;51.256;22.478;2022-10-16T09:43:01;16.80;64.20
26743;DHT22;14341;51.256;22.478;2022-10-16T09:46:08;16.70;62.80
26743;DHT22;14341;51.256;22.478;2022-10-16T09:49:21;16.70;68.00
26743;DHT22;14341;51.256;22.478;2022-10-16T09:52:25;16.70;63.00
26743;DHT22;14341;51.256;22.478;2022-10-16T09:55:30;16.60;73.60
26743;DHT22;14341;51.256;22.478;2022-10-16T09:58:33;16.80;70.40
26743;DHT22;14341;51.256;22.478;2022-10-16T10:01:38;16.90;78.90
26743;DHT22;14341;51.256;22.478;2022-10-16T10:04:48;16.90;70.20
26743;DHT22;14341;51.256;22.478;2022-10-16T10:07:56;17.10;79.00
26743;DHT22;14341;51.256;22.478;2022-10-16T10:11:02;17.00;64.70
26743;DHT22;14341;51.256;22.478;2022-10-16T10:14:13;16.90;63.10
26743;DHT22;14341;51.256;22.478;2022-10-16T10:17:19;17.00;79.00
26743;DHT22;14341;51.256;22.478;2022-10-16T10:20:26;17.10;78.20
26743;DHT22;14341;51.256;22.478;2022-10-16T10:23:30;17.10;65.70
26743;DHT22;14341;51.256;22.478;2022-10-16T10:26:35;17.10;62.80
26743;DHT22;14341;51.256;22.478;2022-10-16T10:29:48;17.20;57.80
26743;DHT22;14341;51.256;22.478;2022-10-16T10:33:17;17.20;61.00
26743;DHT22;14341;51.256;22.478;2022-10-16T10:36:34;17.20;53.80
26743;DHT22;14341;51.256;22.478;2022-10-16T10:39:45;17.00;56.20
26743;DHT22;14341;51.256;22.478;2022-10-16T10:42:56;17.00;68.70
26743;DHT22;14341;51.256;22.478;2022-10-16T10:46:04;17.40;66.60
26743;DHT22;14341;51.256;22.478;2022-10-16T10:49:34;17.40;50.90
26743;DHT22;14341;51.256;22.478;2022-10-16T10:52:59;17.50;37.10
26743;DHT22;14341;51.256;22.478;2022-10-16T10:56:15;17.90;37.90
26743;DHT22;14341;51.256;22.478;2022-10-16T10:59:48;17.90;17.10
26743;DHT22;14341;51.256;22.478;2022-10-16T11:02:57;17.90;27.30
26743;DHT22;14341;51.256;22.478;2022-10-16T11:06:07;17.80;16.90
26743;DHT22;14341;51.256;22.478;2022-10-16T11:09:15;17.80;18.60
26743;DHT22;14341;51.256;22.478;2022-10-16T11:12:22;18.10;15.50
26743;DHT22;14341;51.256;22.478;2022-10-16T11:15:32;18.20;11.60
26743;DHT22;14341;51.256;22.478;2022-10-16T11:18:44;18.10;13.10
26743;DHT22;14341;51.256;22.478;2022-10-16T11:21:55;17.90;8.60
26743;DHT22;14341;51.256;22.478;2022-10-16T11:25:11;17.90;13.60
26743;DHT22;14341;51.256;22.478;2022-10-16T11:28:18;17.90;19.30
26743;DHT22;14341;51.256;22.478;2022-10-16T11:31:29;17.80;33.50
26743;DHT22;14341;51.256;22.478;2022-10-16T11:34:38;17.70;41.90
26743;DHT22;14341;51.256;22.478;2022-10-16T11:37:46;17.70;48.60
26743;DHT22;14341;51.256;22.478;2022-10-16T11:40:54;17.70;49.30
26743;DHT22;14341;51.256;22.478;2022-10-16T11:44:16;17.70;52.20
26743;DHT22;14341;51.256;22.478;2022-10-16T11:47:28;17.80;34.90
26743;DHT22;14341;51.256;22.478;2022-10-16T11:50:58;17.80;38.20
26743;DHT22;14341;51.256;22.478;2022-10-16T11:54:10;17.80;29.50
26743;DHT22;14341;51.256;22.478;2022-10-16T11:57:21;17.80;30.60
26743;DHT22;14341;51.256;22.478;2022-10-16T12:00:29;17.80;41.20
26743;DHT22;14341;51.256;22.478;2022-10-16T12:03:40;18.00;54.20
26743;DHT22;14341;51.256;22.478;2022-10-16T12:06:53;17.90;33.20
26743;DHT22;14341;51.256;22.478;2022-10-16T12:09:58;18.10;34.00
26743;DHT22;14341;51.256;22.478;2022-10-16T12:13:33;18.20;31.90
26743;DHT22;14341;51.256;22.478;2022-10-16T12:16:37;18.40;32.60
26743;DHT22;14341;51.256;22.478;2022-10-16T12:19:42;18.30;42.60
26743;DHT22;14341;51.256;22.478;2022-10-16T12:22:49;18.30;27.50
26743;DHT22;14341;51.256;22.478;2022-10-16T12:25:55;18.40;31.40
26743;DHT22;14341;51.256;22.478;2022-10-16T12:29:14;18.30;32.10
26743;DHT22;14341;51.256;22.478;2022-10-16T12:32:27;18.20;27.90
26743;DHT22;14341;51.256;22.478;2022-10-16T12:35:50;18.10;38.60
26743;DHT22;14341;51.256;22.478;2022-10-16T12:38:54;18.20;33.00
26743;DHT22;14341;51.256;22.478;2022-10-16T12:42:02;18.30;26.70
26743;DHT22;14341;51.256;22.478;2022-10-16T12:45:27;18.20;31.30
26743;DHT22;14341;51.256;22.478;2022-10-16T12:48:31;18.50;43.00
26743;DHT22;14341;51.256;22.478;2022-10-16T12:51:56;18.80;37.40
26743;DHT22;14341;51.256;22.478;2022-10-16T12:55:00;18.80;13.60
26743;DHT22;14341;51.256;22.478;2022-10-16T12:58:15;18.80;9.70
26743;DHT22;14341;51.256;22.478;2022-10-16T13:01:34;18.60;16.40
26743;DHT22;14341;51.256;22.478;2022-10-16T13:04:51;18.90;23.10
26743;DHT22;14341;51.256;22.478;2022-10-16T13:08:07;18.90;6.60
26743;DHT22;14341;51.256;22.478;2022-10-16T13:11:21;19.10;8.90
26743;DHT22;14341;51.256;22.478;2022-10-16T13:14:44;19.10;9.70
26743;DHT22;14341;51.256;22.478;2022-10-16T13:17:59;19.20;1.00
26743;DHT22;14341;51.256;22.478;2022-10-16T13:21:12;19.10;10.30
26743;DHT22;14341;51.256;22.478;2022-10-16T13:24:33;19.00;4.20
26743;DHT22;14341;51.256;22.478;2022-10-16T13:27:48;19.00;11.10
26743;DHT22;14341;51.256;22.478;2022-10-16T13:30:57;19.10;11.80
26743;DHT22;14341;51.256;22.478;2022-10-16T13:34:01;19.00;11.40
26743;DHT22;14341;51.256;22.478;2022-10-16T13:37:16;18.90;25.30
26743;DHT22;14341;51.256;22.478;2022-10-16T13:40:24;18.70;22.10
26743;DHT22;14341;51.256;22.478;2022-10-16T13:43:31;18.70;37.00
26743;DHT22;14341;51.256;22.478;2022-10-16T13:46:34;18.60;34.60
26743;DHT22;14341;51.256;22.478;2022-10-16T13:49:38;18.70;38.00
26743;DHT22;14341;51.256;22.478;2022-10-16T13:52:42;18.50;34.90
26743;DHT22;14341;51.256;22.478;2022-10-16T13:55:47;18.60;48.20
26743;DHT22;14341;51.256;22.478;2022-10-16T13:58:59;18.90;46.50
26743;DHT22;14341;51.256;22.478;2022-10-16T14:02:16;19.00;27.30
26743;DHT22;14341;51.256;22.478;2022-10-16T14:05:21;19.10;26.50
26743;DHT22;14341;51.256;22.478;2022-10-16T14:08:26;19.00;30.80
26743;DHT22;14341;51.256;22.478;2022-10-16T14:11:32;19.00;32.30
26743;DHT22;14341;51.256;22.478;2022-10-16T14:14:42;19.00;25.00
26743;DHT22;14341;51.256;22.478;2022-10-16T14:17:49;19.00;22.20
26743;DHT22;14341;51.256;22.478;2022-10-16T14:20:53;18.90;13.00
26743;DHT22;14341;51.256;22.478;2022-10-16T14:24:11;18.80;19.50
26743;DHT22;14341;51.256;22.478;2022-10-16T14:27:27;18.60;25.30
26743;DHT22;14341;51.256;22.478;2022-10-16T14:30:35;18.60;29.60
26743;DHT22;14341;51.256;22.478;2022-10-16T14:33:39;18.60;30.60
26743;DHT22;14341;51.256;22.478;2022-10-16T14:36:42;18.50;33.60
26743;DHT22;14341;51.256;22.478;2022-10-16T14:39:49;18.40;41.90
26743;DHT22;14341;51.256;22.478;2022-10-16T14:42:54;18.50;42.30
26743;DHT22;14341;51.256;22.478;2022-10-16T14:45:58;18.50;52.30
26743;DHT22;14341;51.256;22.478;2022-10-16T14:49:15;18.40;53.60
26743;DHT22;14341;51.256;22.478;2022-10-16T14:52:19;18.30;53.70
26743;DHT22;14341;51.256;22.478;2022-10-16T14:55:23;18.30;57.40
26743;DHT22;14341;51.256;22.478;2022-10-16T14:58:28;18.10;63.30
26743;DHT22;14341;51.256;22.478;2022-10-16T15:01:31;18.10;71.50
26743;DHT22;14341;51.256;22.478;2022-10-16T15:04:35;17.90;67.80
26743;DHT22;14341;51.256;22.478;2022-10-16T15:07:39;17.80;82.30
26743;DHT22;14341;51.256;22.478;2022-10-16T15:10:44;17.70;91.40
26743;DHT22;14341;51.256;22.478;2022-10-16T15:13:48;17.50;98.10
26743;DHT22;14341;51.256;22.478;2022-10-16T15:16:52;17.30;99.90
26743;DHT22;14341;51.256;22.478;2022-10-16T15:19:57;17.20;99.90
26743;DHT22;14341;51.256;22.478;2022-10-16T15:23:02;17.00;99.90
26743;DHT22;14341;51.256;22.478;2022-10-16T15:26:05;16.90;99.90
26743;DHT22;14341;51.256;22.478;2022-10-16T15:29:11;16.80;99.90
26743;DHT22;14341;51.256;22.478;2022-10-16T15:32:14;16.60;99.90
26743;DHT22;14341;51.256;22.478;2022-10-16T15:35:18;16.50;99.90
26743;DHT22;14341;51.256;22.478;2022-10-16T15:38:22;16.40;99.90
26743;DHT22;14341;51.256;22.478;2022-10-16T15:41:25;16.30;99.90
26743;DHT22;14341;51.256;22.478;2022-10-16T15:44:30;16.20;99.90
26743;DHT22;14341;51.256;22.478;2022-10-16T15:47:34;16.20;99.90
26743;DHT22;14341;51.256;22.478;2022-10-16T15:50:37;16.10;99.90
26743;DHT22;14341;51.256;22.478;2022-10-16T15:53:41;16.10;99.90
26743;DHT22;14341;51.256;22.478;2022-10-16T15:56:45;16.10;99.90
26743;DHT22;14341;51.256;22.478;2022-10-16T15:59:49;16.10;99.90
26743;DHT22;14341;51.256;22.478;2022-10-16T16:02:53;16.20;99.90
26743;DHT22;14341;51.256;22.478;2022-10-16T16:05:57;16.30;99.90
26743;DHT22;14341;51.256;22.478;2022-10-16T16:09:02;16.20;99.90
26743;DHT22;14341;51.256;22.478;2022-10-16T16:12:06;16.10;99.90
26743;DHT22;14341;51.256;22.478;2022-10-16T16:15:11;16.10;99.90
26743;DHT22;14341;51.256;22.478;2022-10-16T16:18:14;16.00;99.90
26743;DHT22;14341;51.256;22.478;2022-10-16T16:21:17;15.90;99.90
26743;DHT22;14341;51.256;22.478;2022-10-16T16:24:21;15.90;99.90
26743;DHT22;14341;51.256;22.478;2022-10-16T16:27:24;15.80;99.90
26743;DHT22;14341;51.256;22.478;2022-10-16T16:30:30;15.80;99.90
26743;DHT22;14341;51.256;22.478;2022-10-16T16:33:33;15.80;99.90
26743;DHT22;14341;51.256;22.478;2022-10-16T16:36:37;15.80;99.90
26743;DHT22;14341;51.256;22.478;2022-10-16T16:39:41;15.80;99.90
26743;DHT22;14341;51.256;22.478;2022-10-16T16:42:47;15.70;99.90
26743;DHT22;14341;51.256;22.478;2022-10-16T16:45:53;15.60;99.90
26743;DHT22;14341;51.256;22.478;2022-10-16T16:48:58;15.60;99.90
26743;DHT22;14341;51.256;22.478;2022-10-16T16:52:01;15.50;99.90
26743;DHT22;14341;51.256;22.478;2022-10-16T16:55:05;15.50;99.90
26743;DHT22;14341;51.256;22.478;2022-10-16T16:58:08;15.50;99.90
26743;DHT22;14341;51.256;22.478;2022-10-16T17:01:13;15.40;99.90
26743;DHT22;14341;51.256;22.478;2022-10-16T17:04:21;15.40;99.90
26743;DHT22;14341;51.256;22.478;2022-10-16T17:07:25;15.30;99.90
26743;DHT22;14341;51.256;22.478;2022-10-16T17:10:29;15.30;99.90
26743;DHT22;14341;51.256;22.478;2022-10-16T17:13:34;15.10;99.90
26743;DHT22;14341;51.256;22.478;2022-10-16T17:16:41;15.00;99.90
26743;DHT22;14341;51.256;22.478;2022-10-16T17:19:45;15.00;99.90
26743;DHT22;14341;51.256;22.478;2022-10-16T17:22:49;15.00;99.90
26743;DHT22;14341;51.256;22.478;2022-10-16T17:25:53;15.00;99.90
26743;DHT22;14341;51.256;22.478;2022-10-16T17:28:58;15.00;99.90
26743;DHT22;14341;51.256;22.478;2022-10-16T17:32:06;14.90;99.90
26743;DHT22;14341;51.256;22.478;2022-10-16T17:35:09;14.90;99.90
26743;DHT22;14341;51.256;22.478;2022-10-16T17:38:14;14.90;99.90
26743;DHT22;14341;51.256;22.478;2022-10-16T17:41:19;14.80;99.90
26743;DHT22;14341;51.256;22.478;2022-10-16T17:44:23;14.80;99.90
26743;DHT22;14341;51.256;22.478;2022-10-16T17:47:28;14.80;99.90
26743;DHT22;14341;51.256;22.478;2022-10-16T17:50:31;14.90;99.90
26743;DHT22;14341;51.256;22.478;2022-10-16T17:53:35;14.90;99.90
26743;DHT22;14341;51.256;22.478;2022-10-16T17:56:39;14.90;99.90
26743;DHT22;14341;51.256;22.478;2022-10-16T17:59:43;15.00;99.90
26743;DHT22;14341;51.256;22.478;2022-10-16T18:02:49;14.90;99.90
26743;DHT22;14341;51.256;22.478;2022-10-16T18:05:53;14.80;99.90
26743;DHT22;14341;51.256;22.478;2022-10-16T18:08:59;14.80;99.90
26743;DHT22;14341;51.256;22.478;2022-10-16T18:12:02;14.70;99.90
26743;DHT22;14341;51.256;22.478;2022-10-16T18:15:06;14.80;99.90
26743;DHT22;14341;51.256;22.478;2022-10-16T18:18:12;14.70;99.90
26743;DHT22;14341;51.256;22.478;2022-10-16T18:21:18;14.70;99.90
26743;DHT22;14341;51.256;22.478;2022-10-16T18:24:22;14.70;99.90
26743;DHT22;14341;51.256;22.478;2022-10-16T18:27:26;14.70;99.90
26743;DHT22;14341;51.256;22.478;2022-10-16T18:30:30;14.60;99.90
26743;DHT22;14341;51.256;22.478;2022-10-16T18:33:36;14.70;99.90
26743;DHT22;14341;51.256;22.478;2022-10-16T18:36:40;14.70;99.90
26743;DHT22;14341;51.256;22.478;2022-10-16T18:39:46;14.70;99.90
26743;DHT22;14341;51.256;22.478;2022-10-16T18:42:49;14.70;99.90
26743;DHT22;14341;51.256;22.478;2022-10-16T18:45:55;14.60;99.90
26743;DHT22;14341;51.256;22.478;2022-10-16T18:49:00;14.50;99.90
26743;DHT22;14341;51.256;22.478;2022-10-16T18:52:03;14.50;99.90
26743;DHT22;14341;51.256;22.478;2022-10-16T18:55:08;14.40;99.90
26743;DHT22;14341;51.256;22.478;2022-10-16T18:58:12;14.50;99.90
26743;DHT22;14341;51.256;22.478;2022-10-16T19:01:17;14.60;99.90
26743;DHT22;14341;51.256;22.478;2022-10-16T19:04:24;14.60;99.90
26743;DHT22;14341;51.256;22.478;2022-10-16T19:07:27;14.60;99.90
26743;DHT22;14341;51.256;22.478;2022-10-16T19:10:31;14.70;99.90
26743;DHT22;14341;51.256;22.478;2022-10-16T19:13:35;14.80;99.90
26743;DHT22;14341;51.256;22.478;2022-10-16T19:16:39;14.90;99.90
26743;DHT22;14341;51.256;22.478;2022-10-16T19:19:45;14.90;99.90
26743;DHT22;14341;51.256;22.478;2022-10-16T19:22:49;14.90;99.90
26743;DHT22;14341;51.256;22.478;2022-10-16T19:26:01;14.80;99.90
26743;DHT22;14341;51.256;22.478;2022-10-16T19:29:05;14.80;99.90
26743;DHT22;14341;51.256;22.478;2022-10-16T19:32:09;14.70;99.90
26743;DHT22;14341;51.256;22.478;2022-10-16T19:35:15;14.70;99.90
26743;DHT22;14341;51.256;22.478;2022-10-16T19:38:18;14.70;99.90
26743;DHT22;14341;51.256;22.478;2022-10-16T19:41:23;14.60;99.90